createdAt,value
2022-10-09T00:01:39.950Z,5.72
2022-10-09T00:04:06.900Z,5.40
2022-10-09T00:06:35.577Z,5.45
2022-10-09T00:09:03.969Z,5.50
2022-10-09T00:11:32.626Z,6.45
2022-10-09T00:14:00.777Z,6.10
2022-10-09T00:16:28.790Z,6.03
2022-10-09T00:18:56.795Z,5.95
2022-10-09T00:21:33.967Z,6.00
2022-10-09T00:24:02.668Z,5.65
2022-10-09T00:26:29.839Z,5.97
2022-10-09T00:28:57.534Z,6.20
2022-10-09T00:31:24.649Z,6.28
2022-10-09T00:33:51.707Z,6.70
2022-10-09T00:36:21.951Z,5.55
2022-10-09T00:38:49.539Z,5.10
2022-10-09T00:41:20.263Z,5.70
2022-10-09T00:43:50.719Z,5.43
2022-10-09T00:46:42.144Z,4.97
2022-10-09T00:49:29.438Z,5.00
2022-10-09T00:52:00.094Z,5.20
2022-10-09T00:54:31.225Z,5.50
2022-10-09T00:56:58.388Z,5.47
2022-10-09T00:59:25.843Z,6.47
2022-10-09T01:01:53.569Z,4.93
2022-10-09T01:04:20.643Z,4.75
2022-10-09T01:06:53.384Z,5.07
2022-10-09T01:09:25.955Z,5.35
2022-10-09T01:12:14.843Z,4.75
2022-10-09T01:15:03.428Z,5.37
2022-10-09T01:17:48.666Z,5.50
2022-10-09T01:20:40.490Z,6.15
2022-10-09T01:23:29.196Z,6.55
2022-10-09T01:26:25.134Z,5.88
2022-10-09T01:28:57.319Z,6.93
2022-10-09T01:31:28.572Z,6.95
2022-10-09T01:33:55.843Z,7.07
2022-10-09T01:36:24.135Z,6.88
2022-10-09T01:38:51.776Z,7.40
2022-10-09T01:41:19.502Z,7.38
2022-10-09T01:43:46.509Z,7.47
2022-10-09T01:46:29.816Z,7.80
2022-10-09T01:49:18.323Z,6.88
2022-10-09T01:52:12.444Z,6.63
2022-10-09T01:55:01.131Z,6.32
2022-10-09T01:57:57.244Z,6.22
2022-10-09T02:00:24.727Z,6.07
2022-10-09T02:02:53.558Z,5.70
2022-10-09T02:05:28.782Z,5.85
2022-10-09T02:07:56.772Z,5.97
2022-10-09T02:10:25.122Z,5.10
2022-10-09T02:12:59.130Z,5.75
2022-10-09T02:15:49.636Z,5.88
2022-10-09T02:18:25.367Z,6.35
2022-10-09T02:20:56.935Z,6.20
2022-10-09T02:23:25.935Z,7.00
2022-10-09T02:25:53.674Z,6.53
2022-10-09T02:28:22.120Z,6.55
2022-10-09T02:31:01.573Z,6.82
2022-10-09T02:33:33.867Z,6.85
2022-10-09T02:36:01.975Z,6.53
2022-10-09T02:38:29.236Z,6.10
2022-10-09T02:41:02.589Z,6.65
2022-10-09T02:43:30.036Z,7.07
2022-10-09T02:45:57.009Z,6.72
2022-10-09T02:48:23.940Z,6.97
2022-10-09T02:50:50.886Z,6.50
2022-10-09T02:53:17.852Z,7.28
2022-10-09T02:55:44.835Z,5.93
2022-10-09T02:58:11.799Z,6.30
2022-10-09T03:00:39.504Z,6.88
2022-10-09T03:03:06.518Z,6.82
2022-10-09T03:05:33.697Z,6.68
2022-10-09T03:08:00.641Z,6.15
2022-10-09T03:10:27.697Z,6.40
2022-10-09T03:12:54.650Z,7.68
2022-10-09T03:15:21.894Z,7.03
2022-10-09T03:17:48.850Z,8.10
2022-10-09T03:20:16.000Z,7.03
2022-10-09T03:22:43.256Z,6.90
2022-10-09T03:25:10.274Z,7.93
2022-10-09T03:27:37.591Z,7.97
2022-10-09T03:30:05.172Z,8.63
2022-10-09T03:32:32.256Z,9.30
2022-10-09T03:34:59.301Z,7.93
2022-10-09T03:37:26.307Z,8.65
2022-10-09T03:39:53.458Z,8.65
2022-10-09T03:42:20.441Z,7.78
2022-10-09T03:44:47.444Z,8.13
2022-10-09T03:47:14.415Z,7.72
2022-10-09T03:49:41.395Z,8.35
2022-10-09T03:52:08.535Z,8.35
2022-10-09T03:54:35.486Z,7.93
2022-10-09T03:57:02.453Z,7.57
2022-10-09T03:59:29.434Z,8.27
2022-10-09T04:01:56.476Z,8.73
2022-10-09T04:04:23.449Z,9.10
2022-10-09T04:06:50.386Z,9.45
2022-10-09T04:09:17.324Z,8.27
2022-10-09T04:11:44.399Z,7.85
2022-10-09T04:14:11.443Z,8.05
2022-10-09T04:16:38.474Z,7.88
2022-10-09T04:19:05.443Z,8.25
2022-10-09T04:21:33.970Z,7.97
2022-10-09T04:24:03.452Z,8.13
2022-10-09T04:26:30.451Z,7.43
2022-10-09T04:28:57.412Z,7.25
2022-10-09T04:31:24.475Z,7.88
2022-10-09T04:33:51.491Z,7.85
2022-10-09T04:36:18.854Z,7.38
2022-10-09T04:38:45.784Z,7.15
2022-10-09T04:41:13.470Z,7.80
2022-10-09T04:43:40.422Z,7.18
2022-10-09T04:46:10.366Z,6.95
2022-10-09T04:48:42.051Z,7.43
2022-10-09T04:51:09.911Z,6.95
2022-10-09T04:53:38.030Z,6.55
2022-10-09T04:56:13.177Z,7.38
2022-10-09T04:58:40.832Z,7.38
2022-10-09T05:01:13.795Z,6.50
2022-10-09T05:03:40.813Z,6.70
2022-10-09T05:06:10.027Z,8.05
2022-10-09T05:08:37.677Z,7.95
2022-10-09T05:11:07.917Z,7.88
2022-10-09T05:13:37.675Z,8.75
2022-10-09T05:18:33.503Z,8.88
2022-10-09T05:21:03.253Z,8.23
2022-10-09T05:25:59.497Z,8.57
2022-10-09T05:28:26.830Z,8.73
2022-10-09T05:30:55.073Z,7.28
2022-10-09T05:33:22.419Z,8.27
2022-10-09T05:35:53.960Z,8.18
2022-10-09T05:38:22.023Z,7.28
2022-10-09T05:40:57.214Z,7.80
2022-10-09T05:43:26.275Z,7.47
2022-10-09T05:45:54.207Z,8.25
2022-10-09T05:48:21.782Z,9.65
2022-10-09T05:50:48.929Z,9.20
2022-10-09T05:53:15.871Z,9.63
2022-10-09T05:55:42.879Z,9.35
2022-10-09T05:58:09.845Z,8.10
2022-10-09T06:00:36.859Z,9.18
2022-10-09T06:03:04.079Z,9.27
2022-10-09T06:05:30.984Z,8.98
2022-10-09T06:07:58.006Z,9.05
2022-10-09T06:10:27.959Z,8.60
2022-10-09T06:12:57.184Z,8.88
2022-10-09T06:15:24.105Z,8.68
2022-10-09T06:17:50.970Z,8.70
2022-10-09T06:20:17.888Z,8.40
2022-10-09T06:22:44.771Z,9.10
2022-10-09T06:25:11.676Z,9.35
2022-10-09T06:27:38.540Z,9.05
2022-10-09T06:30:05.852Z,8.68
2022-10-09T06:32:33.130Z,8.60
2022-10-09T06:35:00.151Z,8.57
2022-10-09T06:41:46.467Z,9.25
2022-10-09T06:44:32.105Z,9.32
2022-10-09T06:46:59.008Z,8.98
2022-10-09T06:49:25.985Z,10.27
2022-10-09T06:51:52.933Z,9.57
2022-10-09T06:54:19.887Z,8.98
2022-10-09T06:56:46.815Z,11.23
2022-10-09T06:59:14.051Z,10.35
2022-10-09T07:06:20.478Z,8.77
2022-10-09T07:08:49.912Z,8.52
2022-10-09T07:11:22.468Z,8.45
2022-10-09T07:13:52.105Z,8.50
2022-10-09T07:16:22.625Z,8.50
2022-10-09T07:19:57.526Z,8.90
2022-10-09T07:22:27.031Z,8.43
2022-10-09T07:27:21.032Z,8.02
2022-10-09T07:29:47.994Z,8.25
2022-10-09T07:32:14.885Z,8.65
2022-10-09T07:34:42.196Z,8.25
2022-10-09T07:37:09.216Z,8.52
2022-10-09T07:39:36.467Z,8.02
2022-10-09T07:42:03.915Z,8.43
2022-10-09T07:44:30.933Z,8.68
2022-10-09T07:46:57.894Z,8.82
2022-10-09T07:49:24.843Z,8.40
2022-10-09T07:51:51.773Z,7.80
2022-10-09T07:54:18.807Z,7.70
2022-10-09T07:56:45.800Z,8.07
2022-10-09T07:59:14.780Z,7.38
2022-10-09T08:01:42.200Z,7.07
2022-10-09T08:04:09.447Z,7.10
2022-10-09T08:06:36.460Z,6.72
2022-10-09T08:09:05.625Z,6.70
2022-10-09T08:11:33.049Z,6.70
2022-10-09T08:13:59.993Z,6.70
2022-10-09T08:16:28.096Z,6.05
2022-10-09T08:19:00.100Z,6.00
2022-10-09T08:21:28.582Z,6.10
2022-10-09T08:23:57.458Z,5.55
2022-10-09T08:26:25.980Z,5.05
2022-10-09T08:28:55.425Z,4.93
2022-10-09T08:31:23.753Z,4.97
2022-10-09T08:33:58.241Z,4.35
2022-10-09T08:36:26.013Z,4.90
2022-10-09T08:38:53.375Z,4.93
2022-10-09T08:41:32.685Z,4.47
2022-10-09T08:44:06.754Z,3.83
2022-10-09T08:46:41.496Z,4.22
2022-10-09T08:49:18.900Z,4.78
2022-10-09T08:51:46.370Z,4.47
2022-10-09T08:54:36.775Z,4.90
2022-10-09T08:57:10.136Z,4.32
2022-10-09T08:59:37.110Z,3.53
2022-10-09T09:02:06.759Z,4.00
2022-10-09T09:04:53.800Z,4.38
2022-10-09T09:07:27.838Z,3.40
2022-10-09T09:10:01.820Z,3.20
2022-10-09T09:12:55.531Z,2.70
2022-10-09T09:15:44.913Z,3.72
2022-10-09T09:18:37.626Z,3.92
2022-10-09T09:21:25.816Z,2.90
2022-10-09T09:23:52.738Z,2.92
2022-10-09T09:26:23.019Z,2.92
2022-10-09T09:28:56.210Z,2.97
2022-10-09T09:31:29.867Z,2.70
2022-10-09T09:34:03.256Z,2.80
2022-10-09T09:36:39.268Z,3.10
2022-10-09T09:39:55.691Z,2.70
2022-10-09T09:42:14.578Z,2.28
2022-10-09T09:45:06.601Z,2.40
2022-10-09T09:47:43.410Z,2.55
2022-10-09T09:50:28.446Z,2.35
2022-10-09T09:52:56.905Z,2.50
2022-10-09T09:55:30.467Z,2.70
2022-10-09T09:58:09.008Z,2.40
2022-10-09T10:00:36.494Z,2.47
2022-10-09T10:03:12.492Z,2.75
2022-10-09T10:05:40.528Z,2.63
2022-10-09T10:08:26.532Z,2.67
2022-10-09T10:11:02.670Z,2.20
2022-10-09T10:13:46.581Z,2.42
2022-10-09T10:16:28.704Z,2.30
2022-10-09T10:18:57.763Z,2.60
2022-10-09T10:21:24.966Z,3.43
2022-10-09T10:26:47.565Z,2.05
2022-10-09T10:29:25.154Z,2.40
2022-10-09T10:32:10.123Z,1.98
2022-10-09T10:34:48.959Z,2.03
2022-10-09T10:37:15.836Z,2.17
2022-10-09T10:39:53.049Z,1.60
2022-10-09T10:42:28.610Z,1.83
2022-10-09T10:45:12.621Z,1.50
2022-10-09T10:47:45.085Z,1.45
2022-10-09T10:50:16.389Z,1.60
2022-10-09T10:53:05.896Z,1.88
2022-10-09T10:55:38.603Z,2.60
2022-10-09T10:58:26.871Z,6.13
2022-10-09T11:01:06.130Z,1.83
2022-10-09T11:04:06.397Z,3.17
2022-10-09T11:06:48.352Z,1.90
2022-10-09T11:09:33.522Z,1.73
2022-10-09T11:12:24.882Z,2.08
2022-10-09T11:15:23.422Z,1.77
2022-10-09T11:18:22.242Z,1.50
2022-10-09T11:21:19.593Z,2.07
2022-10-09T11:24:20.006Z,1.50
2022-10-09T11:27:07.121Z,1.60
2022-10-09T11:29:43.815Z,1.67
2022-10-09T11:32:16.628Z,1.45
2022-10-09T11:34:55.179Z,2.47
2022-10-09T11:37:26.966Z,1.50
2022-10-09T11:39:54.931Z,1.40
2022-10-09T11:42:24.000Z,1.42
2022-10-09T11:45:00.580Z,1.27
2022-10-09T11:47:37.555Z,1.30
2022-10-09T11:50:59.095Z,1.70
2022-10-09T11:53:30.095Z,1.42
2022-10-09T11:58:58.689Z,1.17
2022-10-09T12:01:33.323Z,1.42
2022-10-09T12:04:12.509Z,1.38
2022-10-09T12:07:04.504Z,1.23
2022-10-09T12:09:44.088Z,1.35
2022-10-09T12:12:17.135Z,1.33
2022-10-09T12:14:46.760Z,1.20
2022-10-09T12:20:24.865Z,1.40
2022-10-09T12:23:21.883Z,1.55
2022-10-09T12:25:46.510Z,1.67
2022-10-09T12:28:38.021Z,1.38
2022-10-09T12:31:15.553Z,1.35
2022-10-09T12:33:51.558Z,1.20
2022-10-09T12:36:31.094Z,1.98
2022-10-09T12:38:58.359Z,1.10
2022-10-09T12:41:29.038Z,1.40
2022-10-09T12:43:58.102Z,1.45
2022-10-09T12:46:37.840Z,1.38
2022-10-09T12:49:14.298Z,1.50
2022-10-09T12:51:41.218Z,1.55
2022-10-09T12:54:10.020Z,1.63
2022-10-09T12:56:38.860Z,1.60
2022-10-09T12:59:07.468Z,1.52
2022-10-09T13:01:35.727Z,1.40
2022-10-09T13:04:05.621Z,1.40
2022-10-09T13:09:25.863Z,0.98
2022-10-09T13:11:59.879Z,1.23
2022-10-09T13:14:31.762Z,1.30
2022-10-09T13:16:58.722Z,1.30
2022-10-09T13:19:27.765Z,1.08
2022-10-09T13:22:21.038Z,1.27
2022-10-09T13:24:51.781Z,1.42
2022-10-09T13:27:19.683Z,1.25
2022-10-09T13:29:48.252Z,1.60
2022-10-09T13:32:16.848Z,1.40
2022-10-09T13:34:44.122Z,1.48
2022-10-09T13:37:14.120Z,1.60
2022-10-09T13:39:41.485Z,1.40
2022-10-09T13:42:14.720Z,1.35
2022-10-09T13:44:41.660Z,1.50
2022-10-09T13:47:08.962Z,1.27
2022-10-09T13:49:36.024Z,1.45
2022-10-09T13:52:03.518Z,1.60
2022-10-09T13:54:30.412Z,1.40
2022-10-09T13:56:57.324Z,1.65
2022-10-09T13:59:24.690Z,1.42
2022-10-09T14:01:52.857Z,1.58
2022-10-09T14:04:20.314Z,1.50
2022-10-09T14:06:47.229Z,1.85
2022-10-09T14:09:14.295Z,1.88
2022-10-09T14:11:41.216Z,1.67
2022-10-09T14:14:08.316Z,1.70
2022-10-09T14:16:35.277Z,1.90
2022-10-09T14:19:04.567Z,1.63
2022-10-09T14:21:32.007Z,1.77
2022-10-09T14:24:01.267Z,1.73
2022-10-09T14:26:28.708Z,2.75
2022-10-09T14:29:00.625Z,2.10
2022-10-09T14:31:28.227Z,2.42
2022-10-09T14:33:59.812Z,1.30
2022-10-09T14:36:27.157Z,2.17
2022-10-09T14:38:54.202Z,1.60
2022-10-09T14:41:22.128Z,1.50
2022-10-09T14:43:56.194Z,1.40
2022-10-09T14:46:23.926Z,1.10
2022-10-09T14:48:51.548Z,1.30
2022-10-09T14:51:20.969Z,1.20
2022-10-09T14:53:48.593Z,1.15
2022-10-09T14:56:18.119Z,1.35
2022-10-09T14:58:45.356Z,1.77
2022-10-09T15:01:14.827Z,1.73
2022-10-09T15:03:42.499Z,1.40
2022-10-09T15:06:11.655Z,1.50
2022-10-09T15:08:40.479Z,1.90
2022-10-09T15:11:08.829Z,2.00
2022-10-09T15:13:36.372Z,2.17
2022-10-09T15:16:06.359Z,1.60
2022-10-09T15:18:33.890Z,2.17
2022-10-09T15:21:01.057Z,1.50
2022-10-09T15:23:28.826Z,1.63
2022-10-09T15:25:58.270Z,1.50
2022-10-09T15:28:25.787Z,1.50
2022-10-09T15:31:04.403Z,1.40
2022-10-09T15:33:31.866Z,1.20
2022-10-09T15:35:59.089Z,1.25
2022-10-09T15:38:26.437Z,1.30
2022-10-09T15:40:55.716Z,1.33
2022-10-09T15:43:24.958Z,1.42
2022-10-09T15:45:54.241Z,1.60
2022-10-09T15:48:23.693Z,1.40
2022-10-09T15:50:53.766Z,1.30
2022-10-09T15:53:22.716Z,1.38
2022-10-09T15:55:51.954Z,1.37
2022-10-09T15:58:20.129Z,1.38
2022-10-09T16:00:49.894Z,1.58
2022-10-09T16:03:18.195Z,1.42
2022-10-09T16:05:48.987Z,1.50
2022-10-09T16:08:17.638Z,1.40
2022-10-09T16:10:53.588Z,1.60
2022-10-09T16:13:20.565Z,1.63
2022-10-09T16:15:48.508Z,2.00
2022-10-09T16:18:17.548Z,1.90
2022-10-09T16:20:44.984Z,3.37
2022-10-09T16:23:12.430Z,4.28
2022-10-09T16:25:40.518Z,4.68
2022-10-09T16:28:10.116Z,7.90
2022-10-09T16:30:41.991Z,9.25
2022-10-09T16:33:12.670Z,5.60
2022-10-09T16:35:39.909Z,5.05
2022-10-09T16:38:06.995Z,3.75
2022-10-09T16:43:20.950Z,5.45
2022-10-09T16:45:47.924Z,3.72
2022-10-09T16:48:14.891Z,8.07
2022-10-09T16:50:42.521Z,5.60
2022-10-09T16:53:09.996Z,5.25
2022-10-09T16:55:37.136Z,4.43
2022-10-09T16:58:04.228Z,2.30
2022-10-09T17:00:31.274Z,2.45
2022-10-09T17:02:59.404Z,2.20
2022-10-09T17:05:26.664Z,2.75
2022-10-09T17:07:54.677Z,2.30
2022-10-09T17:10:21.732Z,2.25
2022-10-09T17:13:27.919Z,2.10
2022-10-09T17:15:54.934Z,2.30
2022-10-09T17:18:21.918Z,2.45
2022-10-09T17:20:48.990Z,2.92
2022-10-09T17:23:15.940Z,3.08
2022-10-09T17:25:44.212Z,2.83
2022-10-09T17:28:11.459Z,2.40
2022-10-09T17:30:41.663Z,3.00
2022-10-09T17:33:08.663Z,2.45
2022-10-09T17:35:40.439Z,2.10
2022-10-09T17:38:09.167Z,2.60
2022-10-09T17:40:40.502Z,2.70
2022-10-09T17:43:08.485Z,2.60
2022-10-09T17:45:43.050Z,2.95
2022-10-09T17:48:10.495Z,2.30
2022-10-09T17:50:37.574Z,3.22
2022-10-09T17:53:05.348Z,2.40
2022-10-09T17:55:32.389Z,2.80
2022-10-09T17:58:00.558Z,2.70
2022-10-09T18:00:27.525Z,2.63
2022-10-09T18:03:46.972Z,2.85
2022-10-09T18:06:17.733Z,2.40
2022-10-09T18:08:45.564Z,2.58
2022-10-09T18:11:16.427Z,2.45
2022-10-09T18:13:45.091Z,2.92
2022-10-09T18:16:17.715Z,4.65
2022-10-09T18:18:45.127Z,4.93
2022-10-09T18:21:16.957Z,5.45
2022-10-09T18:23:47.843Z,5.55
2022-10-09T18:26:18.160Z,4.70
2022-10-09T18:29:18.886Z,3.83
2022-10-09T18:31:45.971Z,3.75
2022-10-09T18:34:13.310Z,2.92
2022-10-09T18:36:40.683Z,3.10
2022-10-09T18:39:14.171Z,2.97
2022-10-09T18:41:42.308Z,2.60
2022-10-09T18:44:21.542Z,3.35
2022-10-09T18:46:51.889Z,2.90
2022-10-09T18:49:22.662Z,2.58
2022-10-09T18:51:50.460Z,2.60
2022-10-09T18:54:18.678Z,2.70
2022-10-09T18:56:46.418Z,2.83
2022-10-09T18:59:17.000Z,2.75
2022-10-09T19:01:44.064Z,2.70
2022-10-09T19:04:11.275Z,2.88
2022-10-09T19:06:38.502Z,3.00
2022-10-09T19:09:05.504Z,3.03
2022-10-09T19:11:34.342Z,2.63
2022-10-09T19:14:02.084Z,2.67
2022-10-09T19:16:31.243Z,3.10
2022-10-09T19:18:58.524Z,2.35
2022-10-09T19:25:25.955Z,2.85
2022-10-09T19:27:53.192Z,2.72
2022-10-09T19:30:20.201Z,2.80
2022-10-09T19:32:47.504Z,2.22
2022-10-09T19:35:15.425Z,2.60
2022-10-09T19:37:42.421Z,2.58
2022-10-09T19:40:09.932Z,2.80
2022-10-09T19:42:36.954Z,2.30
2022-10-09T19:45:04.678Z,2.50
2022-10-09T19:47:31.741Z,3.45
2022-10-09T19:49:59.656Z,2.35
2022-10-09T19:52:26.693Z,3.38
2022-10-09T19:54:54.354Z,2.60
2022-10-09T19:57:21.407Z,2.90
2022-10-09T19:59:48.729Z,3.63
2022-10-09T20:02:15.689Z,3.95
2022-10-09T20:04:42.644Z,3.40
2022-10-09T20:07:12.716Z,3.30
2022-10-09T20:09:40.079Z,2.95
2022-10-09T20:12:08.193Z,2.50
2022-10-09T20:14:35.171Z,2.80
2022-10-09T20:17:02.151Z,3.03
2022-10-09T20:19:31.533Z,2.22
2022-10-09T20:21:58.509Z,2.92
2022-10-09T20:24:42.081Z,3.10
2022-10-09T20:27:09.127Z,2.83
2022-10-09T20:29:36.273Z,2.38
2022-10-09T20:32:04.033Z,2.70
2022-10-09T20:34:31.497Z,3.00
2022-10-09T20:36:58.796Z,2.60
2022-10-09T20:39:26.261Z,2.38
2022-10-09T20:41:53.440Z,2.50
2022-10-09T20:44:20.709Z,2.67
2022-10-09T20:46:47.856Z,2.65
2022-10-09T20:49:15.253Z,2.78
2022-10-09T20:51:42.608Z,2.90
2022-10-09T20:54:16.208Z,2.75
2022-10-09T20:56:45.020Z,2.88
2022-10-09T20:59:12.763Z,2.85
2022-10-09T21:01:39.803Z,2.70
2022-10-09T21:04:06.819Z,2.40
2022-10-09T21:06:35.903Z,2.47
2022-10-09T21:09:03.789Z,2.75
2022-10-09T21:11:32.555Z,2.97
2022-10-09T21:13:59.538Z,2.78
2022-10-09T21:16:26.586Z,3.17
2022-10-09T21:18:55.399Z,3.10
2022-10-09T21:21:22.715Z,2.50
2022-10-09T21:23:55.257Z,2.45
2022-10-09T21:26:22.939Z,2.58
2022-10-09T21:28:53.341Z,2.60
2022-10-09T21:31:27.517Z,2.47
2022-10-09T21:33:55.082Z,2.75
2022-10-09T21:39:47.777Z,2.63
2022-10-09T21:42:14.731Z,2.95
2022-10-09T21:44:41.779Z,2.85
2022-10-09T21:47:16.407Z,2.70
2022-10-09T21:49:43.391Z,2.78
2022-10-09T21:52:11.132Z,2.90
2022-10-09T21:54:38.124Z,2.90
2022-10-09T21:57:05.122Z,3.55
2022-10-09T21:59:32.103Z,3.10
2022-10-09T22:01:59.078Z,3.17
2022-10-09T22:04:26.105Z,2.70
2022-10-09T22:06:53.134Z,2.70
2022-10-09T22:09:20.191Z,3.00
2022-10-09T22:11:47.283Z,3.45
2022-10-09T22:14:14.850Z,2.88
2022-10-09T22:16:41.861Z,3.03
2022-10-09T22:19:09.054Z,3.22
2022-10-09T22:21:36.087Z,3.15
2022-10-09T22:24:03.177Z,3.65
2022-10-09T22:26:30.145Z,3.40
2022-10-09T22:28:57.106Z,3.30
2022-10-09T22:35:45.798Z,3.75
2022-10-09T22:40:42.737Z,3.35
2022-10-09T22:43:12.022Z,3.53
2022-10-09T22:45:39.023Z,3.03
2022-10-09T22:48:08.619Z,2.92
2022-10-09T22:50:37.019Z,3.03
2022-10-09T22:53:04.023Z,3.40
2022-10-09T22:55:30.992Z,3.22
2022-10-09T22:57:57.969Z,3.33
2022-10-09T23:00:24.935Z,3.30
2022-10-09T23:02:52.420Z,3.17
2022-10-09T23:05:19.569Z,3.40
2022-10-09T23:07:47.219Z,4.10
2022-10-09T23:10:14.205Z,3.78
2022-10-09T23:12:41.150Z,3.72
2022-10-09T23:15:08.415Z,4.82
2022-10-09T23:17:35.398Z,3.85
2022-10-09T23:20:02.362Z,3.97
2022-10-09T23:22:29.352Z,4.03
2022-10-09T23:24:56.310Z,4.10
2022-10-09T23:27:23.286Z,3.47
2022-10-09T23:29:50.275Z,4.05
2022-10-09T23:32:17.294Z,4.18
2022-10-09T23:34:44.348Z,3.88
2022-10-09T23:37:11.353Z,4.35
2022-10-09T23:39:38.403Z,3.70
2022-10-09T23:42:05.446Z,3.85
2022-10-09T23:44:32.393Z,3.92
2022-10-09T23:46:59.378Z,3.75
2022-10-09T23:49:26.333Z,3.83
2022-10-09T23:51:53.531Z,3.53
2022-10-09T23:54:20.470Z,3.08
2022-10-09T23:56:47.388Z,3.80
2022-10-09T23:59:14.343Z,4.07
